Thursday, November 23, 2017, 6:32 PM GMT
Back to Local

CWZS, Amqui , Que.

Location: , , Canada Lat: 48.467
Local Time: 6:32 PM GMT (18:32 GMT) Lon: -67.433
Time Zone: GMT Elev: 544 ft

Show me the last for .
Show Coded

Time T Td Feel RH Dir Speed Gust Alt SLP Vis Weather Sky Remarks
2017-11-23 18:00 23 15 8 71 300° 10 18 - 29.78 0 Peak wind: 21 mph (19 kts) from 270° at 39 min
2017-11-23 17:00 22 15 7 71 300° 15 22 - 29.78 0 Peak wind: 26 mph (23 kts) from 300° at 17 min
2017-11-23 16:00 22 13 5 68 310° 16 24 - 29.79 0 Peak wind: 25 mph (22 kts) from 330° at 33 min
2017-11-23 15:00 21 15 6 75 320° 10 18 - 29.80 0 Peak wind: 28 mph (25 kts) from 300° at 12 min
2017-11-23 14:00 20 14 2 75 310° 14 29 - 29.80 0 Peak wind: 28 mph (25 kts) from 300° at 55 min
2017-11-23 13:00 20 15 4 77 300° 15 22 - 29.78 0 Peak wind: 26 mph (23 kts) from 320° at 47 min
2017-11-23 12:00 20 15 4 80 300° 15 24 - 29.77 0 Peak wind: 25 mph (22 kts) from 310° at 49 min
2017-11-23 11:00 20 16 5 81 310° 13 18 - 29.77 0 Peak wind: 27 mph (24 kts) from 290° at 00 min
2017-11-23 09:00 22 19 5 86 310° 14 25 - 29.75 0 Peak wind: 28 mph (25 kts) from 280° at 24 min
2017-11-23 08:00 25 22 10 87 320° 14 22 - 29.74 0 Peak wind: 29 mph (26 kts) from 320° at 47 min
2017-11-23 07:00 26 26 13 97 320° 10 18 - 29.75 0 Peak wind: 23 mph (20 kts) from 320° at 39 min
2017-11-23 06:00 28 26 15 91 320° 13 20 - 29.77 0 Peak wind: 21 mph (19 kts) from 320° at 34 min
2017-11-23 05:00 31 29 20 92 320° 12 17 - 29.77 0 Peak wind: 21 mph (19 kts) from 300° at 22 min
2017-11-23 04:00 31 31 20 96 320° 12 18 - 29.77 0 Peak wind: 20 mph (18 kts) from 340° at 46 min
2017-11-23 03:00 32 31 23 95 330° 12 - - 29.78 0 None
2017-11-23 02:00 32 31 24 95 330° 9 - - 29.82 0 1-hr Precip Total: 0.04"
2017-11-23 01:00 31 32 26 102 330° 6 - - 29.83 0 None
2017-11-23 00:00 31 30 - 97 350° 2 - - 29.85 0 1-hr Precip Total: 0.04"
2017-11-22 23:00 31 30 - 97 180° 1 - - 29.86 0 None
2017-11-22 22:00 31 30 - 95 - Calm - - 29.86 0 1-hr Precip Total: 0.08"
2017-11-22 21:00 31 29 - 93 150° 2 - - 29.88 0 None
2017-11-22 20:00 31 27 - 85 180° 1 - - 29.89 0 None
2017-11-22 19:00 31 27 - 83 130° 2 - - 29.89 0 None

Support USWX by starting your Amazon purchase here.